Terminal Aerodrome Forecast
Issued by NWS

Home | Current Version | Previous Version | Text Only | Print | Product List | Glossary On
Versions: 1 2 3 4 5 6 7 8 9 10 11 12 13 14 15
000
FTUS44 KCRP 041125
TAFALI
TAF
KALI 041125Z 0412/0512 15005KT 5SM BR FEW015
      TEMPO 0412/0413 2SM BR BKN015
     FM041400 17010KT P6SM FEW015 SCT100
     FM042100 13015G22KT P6SM SCT040 BKN250
     FM050200 14011KT P6SM SCT250
     FM050900 16004KT P6SM SCT015=

USA.gov is the U.S. government's official web portal to all federal, state and local government web resources and services.